Time;durP1;ratioP1;P1;durP2;ratioP2;P2;SDS_P1;SDS_P2;PMS_P1;PMS_P2;Temp;Humidity;BMP_temperature;BMP_pressure;BME280_temperature;BME280_humidity;BME280_pressure;Samples;Min_cycle;Max_cycle;Signal;HPM_P1;HPM_P2
2022/05/11 00:04:55;;;;;;;2.15;0.80;;;15.20;99.90;;;;;;20446536;28;20284;-40
2022/05/11 00:14:56;;;;;;;3.63;0.65;;;15.10;99.90;;;;;;20450930;28;20120;-40
2022/05/11 00:24:57;;;;;;;2.53;0.77;;;15.10;99.90;;;;;;20462812;28;20346;-40
2022/05/11 00:34:58;;;;;;;2.35;0.95;;;15.10;99.90;;;;;;20450168;28;20046;-40
2022/05/11 00:44:59;;;;;;;1.85;0.60;;;15.10;99.90;;;;;;20455392;28;20052;-40
2022/05/11 00:55:06;;;;;;;2.35;0.57;;;15.10;99.90;;;;;;20454465;28;20043;-40
2022/05/11 01:05:08;;;;;;;2.55;0.60;;;15.00;99.90;;;;;;20457899;28;20054;-40
2022/05/11 01:15:11;;;;;;;3.53;1.10;;;15.10;99.90;;;;;;20446466;28;20061;-40
2022/05/11 01:25:14;;;;;;;3.03;0.98;;;15.00;99.90;;;;;;20445885;28;20047;-40
2022/05/11 01:35:58;;;;;;;10.27;1.17;;;15.00;99.90;;;;;;20442660;28;20088;-40
2022/05/11 01:46:00;;;;;;;5.30;1.17;;;14.90;99.90;;;;;;20459443;28;20047;-40
2022/05/11 01:56:01;;;;;;;1.80;0.57;;;14.80;99.90;;;;;;20433908;28;20127;-40
2022/05/11 02:16:23;;;;;;;2.30;1.00;;;15.00;99.90;;;;;;20436239;28;20470;-40
2022/05/11 02:26:24;;;;;;;2.83;0.85;;;14.80;99.90;;;;;;20434186;28;20051;-40
2022/05/11 02:36:25;;;;;;;3.13;0.88;;;14.90;99.90;;;;;;20444969;28;20050;-40
2022/05/11 02:46:26;;;;;;;2.15;0.75;;;14.70;99.90;;;;;;20449392;28;20055;-40
2022/05/11 02:56:27;;;;;;;2.03;0.70;;;14.80;99.90;;;;;;20447791;28;20042;-40
2022/05/11 03:06:29;;;;;;;4.13;1.00;;;14.70;99.90;;;;;;20438926;28;20047;-40
2022/05/11 03:16:30;;;;;;;2.80;1.40;;;14.70;99.90;;;;;;20451526;28;20050;-40
2022/05/11 03:26:31;;;;;;;1.23;0.70;;;14.70;99.90;;;;;;20424301;28;20050;-40
2022/05/11 03:36:32;;;;;;;1.80;0.70;;;14.80;99.90;;;;;;20443065;28;20395;-40
2022/05/11 03:46:33;;;;;;;0.75;0.40;;;14.80;99.90;;;;;;20449296;28;20054;-40
2022/05/11 03:56:34;;;;;;;2.45;0.60;;;14.80;99.90;;;;;;20442540;28;20050;-40
2022/05/11 04:06:35;;;;;;;1.80;0.60;;;14.70;99.90;;;;;;20439448;28;20051;-40
2022/05/11 04:16:36;;;;;;;1.65;1.25;;;14.70;99.90;;;;;;20456325;28;20039;-40
2022/05/11 04:26:37;;;;;;;1.30;0.40;;;14.70;99.90;;;;;;20445908;28;20048;-40
2022/05/11 04:36:39;;;;;;;1.90;0.68;;;14.70;99.90;;;;;;20436527;28;21460;-39
2022/05/11 04:46:40;;;;;;;1.63;0.38;;;14.70;99.90;;;;;;20438403;28;20058;-39
2022/05/11 04:56:42;;;;;;;2.83;0.70;;;14.80;99.90;;;;;;20452308;28;20032;-39
2022/05/11 05:06:43;;;;;;;2.78;0.32;;;14.70;99.90;;;;;;20443090;28;20055;-39
2022/05/11 05:16:45;;;;;;;0.70;0.20;;;14.70;99.90;;;;;;20457491;28;20047;-39
2022/05/11 05:26:46;;;;;;;0.90;0.20;;;14.80;99.90;;;;;;20449098;28;20055;-39
2022/05/11 05:36:47;;;;;;;0.52;0.22;;;14.80;99.90;;;;;;20442190;28;20047;-40
2022/05/11 05:46:48;;;;;;;2.47;0.38;;;14.80;99.90;;;;;;20448583;28;20287;-39
2022/05/11 05:56:49;;;;;;;1.63;0.43;;;14.90;99.90;;;;;;20451777;28;20047;-40
2022/05/11 06:06:50;;;;;;;1.00;0.50;;;15.00;99.90;;;;;;20438903;28;20062;-39
2022/05/11 06:16:53;;;;;;;1.25;0.75;;;15.20;99.90;;;;;;20434891;28;20040;-39
2022/05/11 06:26:57;;;;;;;1.17;0.30;;;15.60;99.90;;;;;;20439165;28;21837;-40
2022/05/11 06:36:58;;;;;;;4.05;0.30;;;15.70;99.90;;;;;;20444572;28;20518;-40
2022/05/11 06:46:59;;;;;;;0.85;0.30;;;15.80;99.90;;;;;;20419958;28;20396;-40
2022/05/11 07:07:20;;;;;;;1.17;0.30;;;15.80;99.90;;;;;;20435721;28;20050;-40
2022/05/11 07:17:33;;;;;;;1.05;0.28;;;16.20;99.90;;;;;;20413108;28;20043;-40
2022/05/11 07:27:35;;;;;;;0.73;0.30;;;16.20;99.90;;;;;;20428828;28;20047;-39
2022/05/11 07:37:36;;;;;;;3.03;0.38;;;16.50;99.90;;;;;;20429206;28;20052;-39
2022/05/11 07:47:39;;;;;;;0.88;0.38;;;16.70;99.90;;;;;;20455036;28;20039;-39
2022/05/11 08:08:03;;;;;;;2.03;0.20;;;17.10;99.90;;;;;;20431296;28;20042;-39
2022/05/11 08:18:05;;;;;;;1.73;0.20;;;17.20;99.90;;;;;;20442068;28;20043;-39
2022/05/11 08:28:16;;;;;;;2.10;0.20;;;17.30;99.90;;;;;;20440289;28;20048;-39
2022/05/11 08:38:19;;;;;;;9.23;0.47;;;17.60;99.90;;;;;;20439005;28;20035;-39
2022/05/11 08:48:49;;;;;;;0.70;0.20;;;17.80;99.90;;;;;;20439167;28;20047;-40
2022/05/11 08:58:54;;;;;;;0.57;0.20;;;18.10;99.90;;;;;;20418890;28;20223;-39
2022/05/11 09:08:57;;;;;;;1.00;0.25;;;18.10;99.90;;;;;;20429274;28;20048;-39
2022/05/11 09:19:10;;;;;;;0.45;0.20;;;18.30;99.90;;;;;;20450725;28;20039;-40
2022/05/11 09:29:31;;;;;;;1.27;0.32;;;18.60;99.90;;;;;;20444516;28;20051;-39
2022/05/11 09:39:33;;;;;;;1.27;0.40;;;18.50;99.90;;;;;;20429186;28;20083;-40
2022/05/11 09:49:35;;;;;;;1.98;0.30;;;18.60;99.90;;;;;;20442152;28;20047;-39
2022/05/11 09:59:37;;;;;;;2.72;0.60;;;18.60;99.90;;;;;;20442338;28;20036;-40
2022/05/11 10:09:48;;;;;;;1.52;0.52;;;18.90;99.90;;;;;;20432946;28;21581;-40
2022/05/11 10:30:47;;;;;;;2.88;0.63;;;18.70;99.90;;;;;;20423027;28;20047;-40
2022/05/11 10:41:01;;;;;;;8.45;2.22;;;19.40;99.90;;;;;;20423402;28;20043;-39
2022/05/11 10:51:13;;;;;;;2.50;1.10;;;19.70;99.90;;;;;;20435799;28;20047;-40
2022/05/11 11:01:16;;;;;;;9.10;0.57;;;19.70;99.90;;;;;;20438631;28;20340;-40
2022/05/11 11:11:35;;;;;;;2.10;0.50;;;19.80;99.90;;;;;;20430202;28;20043;-40
2022/05/11 11:21:41;;;;;;;1.38;0.35;;;20.00;99.90;;;;;;20441439;28;20067;-40
2022/05/11 11:32:16;;;;;;;4.50;0.50;;;20.50;99.30;;;;;;20438844;28;20347;-40
2022/05/11 11:42:37;;;;;;;1.42;0.52;;;20.70;99.40;;;;;;20423629;28;20055;-40
2022/05/11 11:52:44;;;;;;;4.47;0.52;;;21.00;99.00;;;;;;20450312;28;20042;-40
2022/05/11 12:02:46;;;;;;;2.20;0.40;;;21.20;97.60;;;;;;20431945;28;20047;-40
2022/05/11 12:23:20;;;;;;;1.45;0.55;;;21.60;98.20;;;;;;20453619;28;20058;-40
2022/05/11 12:33:32;;;;;;;1.42;0.40;;;22.10;96.50;;;;;;20430798;28;20070;-40
2022/05/11 12:43:36;;;;;;;1.58;0.38;;;22.00;97.40;;;;;;20443834;28;20046;-40
2022/05/11 12:53:47;;;;;;;1.35;0.20;;;22.10;96.90;;;;;;20442942;28;20149;-40
2022/05/11 13:03:54;;;;;;;1.92;0.60;;;22.60;95.20;;;;;;20433676;28;20040;-40
2022/05/11 13:13:58;;;;;;;1.27;0.57;;;22.50;95.50;;;;;;20435976;28;20570;-40
2022/05/11 13:23:59;;;;;;;2.22;0.70;;;22.20;95.60;;;;;;20438068;28;20047;-40
2022/05/11 13:34:04;;;;;;;2.58;0.90;;;22.60;96.50;;;;;;20444879;28;20125;-41
2022/05/11 13:44:21;;;;;;;2.00;0.57;;;22.40;94.70;;;;;;20443108;28;20416;-41
2022/05/11 13:54:26;;;;;;;2.22;1.15;;;22.00;96.00;;;;;;20439319;28;20538;-40
2022/05/11 14:04:32;;;;;;;2.47;0.90;;;22.10;97.20;;;;;;20440389;28;20055;-40
2022/05/11 14:14:33;;;;;;;6.13;1.15;;;21.70;98.40;;;;;;20444235;28;20051;-40
2022/05/11 14:24:34;;;;;;;2.35;1.05;;;21.50;99.10;;;;;;20436975;28;20066;-40
2022/05/11 14:34:35;;;;;;;3.45;1.00;;;21.40;99.90;;;;;;20440245;28;20044;-40
2022/05/11 14:44:37;;;;;;;3.75;0.73;;;21.70;99.90;;;;;;20436464;28;20054;-40
2022/05/11 14:54:38;;;;;;;2.40;0.90;;;21.50;99.90;;;;;;20434315;28;21580;-40
2022/05/11 15:04:42;;;;;;;5.25;1.00;;;21.60;99.90;;;;;;20437119;28;20402;-40
2022/05/11 15:14:44;;;;;;;5.90;1.35;;;21.40;99.90;;;;;;20433066;28;20479;-40
2022/05/11 15:24:45;;;;;;;2.67;0.90;;;21.30;99.90;;;;;;20440860;28;20067;-41
2022/05/11 15:34:46;;;;;;;2.30;0.80;;;21.30;99.90;;;;;;20448453;28;20047;-40
2022/05/11 15:44:49;;;;;;;2.55;1.00;;;21.30;99.90;;;;;;20431228;28;20043;-40
2022/05/11 15:54:54;;;;;;;3.75;1.25;;;20.80;99.90;;;;;;20428704;28;20051;-41
2022/05/11 16:04:55;;;;;;;3.13;0.90;;;20.30;99.90;;;;;;20443763;28;20046;-40
2022/05/11 16:14:56;;;;;;;5.20;0.82;;;19.70;99.90;;;;;;20434962;28;20496;-41
2022/05/11 16:24:58;;;;;;;2.25;0.90;;;19.70;99.90;;;;;;20428302;28;20051;-40
2022/05/11 16:34:59;;;;;;;1.50;0.57;;;19.40;99.90;;;;;;20428014;28;20043;-40
2022/05/11 16:45:02;;;;;;;4.25;1.50;;;19.00;99.90;;;;;;20446854;28;20050;-40
2022/05/11 16:55:04;;;;;;;3.33;1.58;;;18.50;99.90;;;;;;20431654;28;20035;-40
2022/05/11 17:05:06;;;;;;;16.88;1.80;;;18.40;99.90;;;;;;20427205;28;20063;-40
2022/05/11 17:15:07;;;;;;;3.05;0.95;;;18.30;99.90;;;;;;20412405;28;20040;-40
2022/05/11 17:25:13;;;;;;;1.13;0.40;;;18.40;99.90;;;;;;20415145;28;20492;-40
2022/05/11 17:35:16;;;;;;;1.25;0.52;;;18.40;99.90;;;;;;20415395;28;20191;-39
2022/05/11 17:45:20;;;;;;;0.68;0.22;;;18.50;99.90;;;;;;20443004;28;20051;-40
2022/05/11 17:55:22;;;;;;;1.77;0.30;;;18.50;99.90;;;;;;20434536;28;20638;-40
2022/05/11 18:05:24;;;;;;;4.20;0.40;;;18.50;99.90;;;;;;20430565;28;20143;-40
2022/05/11 18:15:25;;;;;;;2.45;0.60;;;18.50;99.90;;;;;;20426841;28;20043;-40
2022/05/11 18:25:26;;;;;;;1.52;0.20;;;18.40;99.90;;;;;;20422185;28;20058;-40
2022/05/11 18:35:27;;;;;;;1.88;0.30;;;18.30;99.90;;;;;;20434847;28;20054;-39
2022/05/11 18:45:29;;;;;;;5.63;0.82;;;18.20;99.90;;;;;;20441571;28;20534;-40
2022/05/11 18:55:30;;;;;;;1.60;0.40;;;18.20;99.90;;;;;;20417456;28;20443;-40
2022/05/11 19:05:31;;;;;;;3.30;0.85;;;18.30;99.90;;;;;;20436786;28;20199;-40
2022/05/11 19:15:32;;;;;;;1.88;0.50;;;18.30;99.90;;;;;;20427388;28;20056;-40
2022/05/11 19:25:33;;;;;;;2.08;0.50;;;17.80;99.90;;;;;;20425014;28;20419;-40
2022/05/11 19:35:34;;;;;;;3.53;0.63;;;17.60;99.90;;;;;;20433847;28;20055;-40
2022/05/11 19:45:35;;;;;;;1.77;0.50;;;16.90;99.90;;;;;;20449357;28;20047;-40
2022/05/11 19:55:37;;;;;;;1.02;0.50;;;16.40;99.90;;;;;;20438037;28;20040;-40
2022/05/11 20:05:39;;;;;;;1.42;0.65;;;15.70;99.90;;;;;;20453343;28;21368;-40
2022/05/11 20:15:42;;;;;;;3.53;0.93;;;15.10;99.90;;;;;;20439843;28;20050;-40
2022/05/11 20:25:44;;;;;;;3.03;0.73;;;14.60;99.90;;;;;;20441086;28;20051;-42
2022/05/11 20:35:46;;;;;;;1.95;0.85;;;14.50;99.90;;;;;;20437936;28;20070;-42
2022/05/11 20:45:47;;;;;;;3.03;1.50;;;14.40;99.90;;;;;;20437060;28;20043;-41
2022/05/11 20:55:48;;;;;;;3.17;1.17;;;14.30;99.90;;;;;;20428267;28;20515;-41
2022/05/11 21:05:49;;;;;;;2.22;1.05;;;14.30;99.90;;;;;;20424389;28;20042;-41
2022/05/11 21:15:51;;;;;;;2.03;0.98;;;14.30;99.90;;;;;;20438307;28;20074;-41
2022/05/11 21:25:52;;;;;;;1.98;0.90;;;14.20;99.90;;;;;;20423154;28;20043;-41
2022/05/11 21:35:55;;;;;;;1.90;0.60;;;13.80;99.90;;;;;;20435111;28;20459;-41
2022/05/11 21:45:57;;;;;;;1.83;0.65;;;13.70;99.90;;;;;;20426142;28;20052;-41
2022/05/11 21:55:58;;;;;;;1.40;0.50;;;13.60;99.90;;;;;;20425966;28;20067;-41
2022/05/11 22:06:00;;;;;;;2.95;0.90;;;13.60;99.90;;;;;;20414437;28;20046;-41
2022/05/11 22:16:01;;;;;;;3.70;0.80;;;13.40;99.90;;;;;;20360763;28;1260039;-41
2022/05/11 22:26:03;;;;;;;3.78;1.23;;;13.40;99.90;;;;;;20401249;28;20059;-41
2022/05/11 22:36:07;;;;;;;3.13;0.75;;;13.30;99.90;;;;;;20429174;28;20040;-41
2022/05/11 22:46:08;;;;;;;3.85;0.63;;;13.20;99.90;;;;;;20424103;28;20047;-40
2022/05/11 22:56:10;;;;;;;1.70;0.40;;;13.00;99.90;;;;;;20430232;28;20036;-40
2022/05/11 23:06:11;;;;;;;2.33;1.27;;;12.80;99.90;;;;;;20437461;28;20491;-40
2022/05/11 23:16:14;;;;;;;4.32;0.55;;;12.60;99.90;;;;;;20437017;28;20067;-40
2022/05/11 23:26:15;;;;;;;1.33;0.50;;;12.50;99.90;;;;;;20446952;28;20120;-40
2022/05/11 23:36:17;;;;;;;1.92;0.60;;;12.30;99.90;;;;;;20446668;28;20051;-40
2022/05/11 23:46:18;;;;;;;1.33;0.47;;;12.10;99.90;;;;;;20440569;28;20044;-40
2022/05/11 23:56:20;;;;;;;4.93;1.23;;;12.00;99.90;;;;;;20437317;28;20503;-40
